Time;durP1;ratioP1;P1;durP2;ratioP2;P2;SDS_P1;SDS_P2;PMS_P1;PMS_P2;Temp;Humidity;BMP_temperature;BMP_pressure;BME280_temperature;BME280_humidity;BME280_pressure;Samples;Min_cycle;Max_cycle;Signal;HPM_P1;HPM_P2
2022/06/07 00:00:23;;;;;;;;;;;;;;;;;;5113087;28;20307;-76
2022/06/07 00:02:49;;;;;;;;;;;;;;;;;;5113038;28;19908;-76
2022/06/07 00:05:15;;;;;;;;;;;;;;;;;;5113027;28;20264;-76
2022/06/07 00:07:41;;;;;;;;;;;;;;;;;;5113059;28;19915;-76
2022/06/07 00:10:07;;;;;;;;;;;;;;;;;;5113149;28;19915;-76
2022/06/07 00:12:33;;;;;;;;;;;;;;;;;;5112943;28;20286;-75
2022/06/07 00:14:59;;;;;;;;;;;;;;;;;;5112830;28;19912;-76
2022/06/07 00:17:24;;;;;;;;;;;18.90;99.90;;;;;;5112820;28;19915;-76
2022/06/07 00:19:50;;;;;;;;;;;18.80;99.90;;;;;;5094697;28;19915;-77
2022/06/07 00:22:16;;;;;;;;;;;18.70;99.90;;;;;;5112928;28;19980;-76
2022/06/07 00:24:42;;;;;;;;;;;18.60;99.90;;;;;;5112646;28;19915;-76
2022/06/07 00:27:08;;;;;;;;;;;18.60;99.90;;;;;;5112708;28;19908;-77
2022/06/07 00:29:34;;;;;;;;;;;18.60;99.90;;;;;;5094748;28;19986;-76
2022/06/07 00:32:01;;;;;;;;;;;18.60;99.90;;;;;;5094635;28;19955;-76
2022/06/07 00:34:26;;;;;;;;;;;18.60;99.90;;;;;;5112708;28;20312;-76
2022/06/07 00:36:52;;;;;;;;;;;18.50;99.90;;;;;;5094507;28;19916;-76
2022/06/07 00:39:17;;;;;;;;;;;18.50;99.90;;;;;;5112898;28;19915;-76
2022/06/07 00:41:43;;;;;;;;;;;18.50;99.90;;;;;;5094467;28;20049;-76
2022/06/07 00:44:14;;;;;;;;;;;18.40;99.90;;;;;;5094540;28;19908;-76
2022/06/07 00:46:41;;;;;;;;;;;18.40;99.90;;;;;;5094677;28;20384;-76
2022/06/07 00:49:06;;;;;;;;;;;18.30;99.90;;;;;;5112471;28;19915;-76
2022/06/07 00:51:32;;;;;;;;;;;18.30;99.90;;;;;;5112669;28;19911;-75
2022/06/07 00:53:57;;;;;;;;;;;18.20;99.90;;;;;;5112481;28;19916;-76
2022/06/07 00:56:23;;;;;;;;;;;18.20;99.90;;;;;;5112678;28;19976;-76
2022/06/07 00:58:48;;;;;;;;;;;18.20;99.90;;;;;;5112571;28;19915;-76
2022/06/07 01:01:14;;;;;;;;;;;18.20;99.90;;;;;;5115937;28;19984;-76
2022/06/07 01:03:40;;;;;;;;;;;18.20;99.90;;;;;;5116403;28;19911;-75
2022/06/07 01:11:33;;;;;;;;;;;18.10;99.90;;;;;;5116241;28;19931;-76
2022/06/07 01:13:59;;;;;;;;;;;18.00;99.90;;;;;;5116343;28;20355;-76
2022/06/07 01:16:24;;;;;;;;;;;18.00;99.90;;;;;;5116089;28;20397;-76
2022/06/07 01:18:50;;;;;;;;;;;18.00;99.90;;;;;;5097743;28;19915;-76
2022/06/07 01:21:19;;;;;;;;;;;18.00;99.90;;;;;;5116226;28;19904;-76
2022/06/07 01:23:46;;;;;;;;;;;17.90;99.90;;;;;;5116052;28;20385;-76
2022/06/07 01:26:12;;;;;;;;;;;17.90;99.90;;;;;;5097798;28;20266;-77
2022/06/07 01:28:38;;;;;;;;;;;17.80;99.90;;;;;;5115730;28;19908;-76
2022/06/07 01:31:03;;;;;;;;;;;17.80;99.90;;;;;;5116030;28;19916;-76
2022/06/07 01:33:29;;;;;;;;;;;17.80;99.90;;;;;;5115947;28;19951;-76
2022/06/07 01:36:04;;;;;;;;;;;17.80;99.90;;;;;;5115717;28;19969;-76
2022/06/07 01:38:31;;;;;;;;;;;17.70;99.90;;;;;;5115706;28;19912;-76
2022/06/07 01:43:40;;;;;;;;;;;17.60;99.90;;;;;;5115832;28;19914;-76
2022/06/07 01:46:05;;;;;;;;;;;17.60;99.90;;;;;;5115730;28;19908;-75
2022/06/07 01:48:32;;;;;;;;;;;17.60;99.90;;;;;;5115604;28;19907;-76
2022/06/07 01:51:02;;;;;;;;;;;17.50;99.90;;;;;;5115657;28;19941;-76
2022/06/07 01:53:27;;;;;;;;;;;17.50;99.90;;;;;;5115575;28;19931;-76
2022/06/07 01:55:59;;;;;;;;;;;17.50;99.90;;;;;;5115473;28;19916;-76
2022/06/07 01:58:25;;;;;;;;;;;17.50;99.90;;;;;;5115574;28;20354;-76
2022/06/07 02:00:52;;;;;;;;;;;17.50;99.90;;;;;;5097392;28;20419;-76
2022/06/07 02:03:18;;;;;;;;;;;17.40;99.90;;;;;;5115475;28;19908;-76
2022/06/07 02:05:52;;;;;;;;;;;17.40;99.90;;;;;;5115315;28;19908;-76
2022/06/07 02:08:18;;;;;;;;;;;17.40;99.90;;;;;;5115193;28;19914;-76
2022/06/07 02:10:43;;;;;;;;;;;17.40;99.90;;;;;;5096448;28;19908;-76
2022/06/07 02:13:09;;;;;;;;;;;17.30;99.90;;;;;;5114712;28;19908;-76
2022/06/07 02:15:34;;;;;;;;;;;17.30;99.90;;;;;;5115069;28;19911;-76
2022/06/07 02:18:00;;;;;;;;;;;17.20;99.90;;;;;;5115065;28;19914;-76
2022/06/07 02:20:26;;;;;;;;;;;17.10;99.90;;;;;;5115066;28;19939;-75
2022/06/07 02:22:52;;;;;;;;;;;17.10;99.90;;;;;;5115065;28;20389;-76
2022/06/07 02:25:17;;;;;;;;;;;17.00;99.90;;;;;;5114955;28;19908;-76
2022/06/07 02:27:43;;;;;;;;;;;17.10;99.90;;;;;;5114671;28;19915;-76
2022/06/07 02:30:09;;;;;;;;;;;17.00;99.90;;;;;;5115000;28;19981;-76
2022/06/07 02:32:35;;;;;;;;;;;17.00;99.90;;;;;;5114727;28;20002;-76
2022/06/07 02:35:01;;;;;;;;;;;17.10;99.90;;;;;;5114522;28;20435;-77
2022/06/07 02:37:28;;;;;;;;;;;17.00;99.90;;;;;;5114385;28;19938;-77
2022/06/07 02:39:54;;;;;;;;;;;17.00;99.90;;;;;;5114562;28;19954;-76
2022/06/07 02:42:21;;;;;;;;;;;17.00;99.90;;;;;;5114659;28;19962;-76
2022/06/07 02:44:47;;;;;;;;;;;17.00;99.90;;;;;;5114544;28;20502;-77
2022/06/07 02:47:13;;;;;;;;;;;17.00;99.90;;;;;;5114380;28;19915;-76
2022/06/07 02:49:38;;;;;;;;;;;17.00;99.90;;;;;;5114531;28;19968;-76
2022/06/07 02:52:04;;;;;;;;;;;17.00;99.90;;;;;;5114181;28;19911;-76
2022/06/07 02:54:29;;;;;;;;;;;17.00;99.90;;;;;;5096200;28;19990;-76
2022/06/07 02:56:55;;;;;;;;;;;17.00;99.90;;;;;;5114273;28;19912;-75
2022/06/07 02:59:21;;;;;;;;;;;17.00;99.90;;;;;;5114223;28;20385;-76
2022/06/07 03:01:46;;;;;;;;;;;17.00;99.90;;;;;;5114201;28;19923;-76
2022/06/07 03:04:12;;;;;;;;;;;17.00;99.90;;;;;;5113897;28;19908;-76
2022/06/07 03:06:37;;;;;;;;;;;17.00;99.90;;;;;;5114083;28;19947;-76
2022/06/07 03:09:03;;;;;;;;;;;17.00;99.90;;;;;;5114010;28;19918;-76
2022/06/07 03:11:28;;;;;;;;;;;17.00;99.90;;;;;;5113950;28;19918;-76
2022/06/07 03:13:54;;;;;;;;;;;17.00;99.90;;;;;;5114089;28;19961;-76
2022/06/07 03:16:20;;;;;;;;;;;17.00;99.90;;;;;;5113841;28;19916;-76
2022/06/07 03:18:45;;;;;;;;;;;17.00;99.90;;;;;;5113786;28;19908;-76
2022/06/07 03:21:11;;;;;;;;;;;17.10;99.90;;;;;;5113923;28;19904;-76
2022/06/07 03:23:36;;;;;;;;;;;17.10;99.90;;;;;;5113667;28;20317;-76
2022/06/07 03:26:08;;;;;;;;;;;17.10;99.90;;;;;;5113753;28;19914;-76
2022/06/07 03:28:34;;;;;;;;;;;17.20;99.90;;;;;;5113598;28;19987;-76
2022/06/07 03:31:04;;;;;;;;;;;17.30;99.90;;;;;;5113598;28;20038;-76
2022/06/07 03:33:29;;;;;;;;;;;17.20;99.90;;;;;;5113644;28;20514;-76
2022/06/07 03:35:55;;;;;;;;;;;17.20;99.90;;;;;;5113434;28;20335;-76
2022/06/07 03:38:20;;;;;;;;;;;17.30;99.90;;;;;;5113474;28;19944;-76
2022/06/07 03:40:46;;;;;;;;;;;17.30;99.90;;;;;;5113375;28;19912;-76
2022/06/07 03:43:12;;;;;;;;;;;17.30;99.90;;;;;;5113290;28;19908;-76
2022/06/07 03:45:38;;;;;;;;;;;17.40;99.90;;;;;;5113454;28;20460;-76
2022/06/07 03:48:04;;;;;;;;;;;17.40;99.90;;;;;;5113301;28;20350;-76
2022/06/07 03:50:30;;;;;;;;;;;17.30;99.90;;;;;;5113244;28;20018;-76
2022/06/07 03:52:56;;;;;;;;;;;17.30;99.90;;;;;;5094705;28;19931;-76
2022/06/07 03:55:21;;;;;;;;;;;17.30;99.90;;;;;;5113182;28;19927;-75
2022/06/07 03:57:47;;;;;;;;;;;17.40;99.90;;;;;;5113336;28;20265;-76
2022/06/07 04:00:13;;;;;;;;;;;17.40;99.90;;;;;;5113177;28;19914;-76
2022/06/07 04:02:38;;;;;;;;;;;17.40;99.90;;;;;;5112939;28;19911;-76
2022/06/07 04:05:04;;;;;;;;;;;17.40;99.90;;;;;;5113160;28;20313;-76
2022/06/07 04:10:14;;;;;;;;;;;17.30;99.90;;;;;;5112971;28;19961;-76
2022/06/07 04:12:39;;;;;;;;;;;17.30;99.90;;;;;;5113066;28;19912;-76
2022/06/07 04:15:05;;;;;;;;;;;17.40;99.90;;;;;;5094724;28;19964;-76
2022/06/07 04:17:30;;;;;;;;;;;17.40;99.90;;;;;;5112767;28;19919;-76
2022/06/07 04:19:56;;;;;;;;;;;17.50;99.90;;;;;;5112642;28;19962;-76
2022/06/07 04:22:21;;;;;;;;;;;17.40;99.90;;;;;;5094554;28;20077;-76
2022/06/07 04:24:47;;;;;;;;;;;17.50;99.90;;;;;;5095016;28;20381;-76
2022/06/07 04:27:13;;;;;;;;;;;17.50;99.90;;;;;;5112685;28;19912;-76
2022/06/07 04:29:39;;;;;;;;;;;17.40;99.90;;;;;;5112878;28;20400;-76
2022/06/07 04:32:05;;;;;;;;;;;17.50;99.90;;;;;;5112846;28;19943;-76
2022/06/07 04:34:30;;;;;;;;;;;17.50;99.90;;;;;;5113408;28;19960;-76
2022/06/07 04:36:56;;;;;;;;;;;17.70;99.90;;;;;;5116856;28;20313;-76
2022/06/07 04:39:21;;;;;;;;;;;17.70;99.90;;;;;;5117031;28;19908;-77
2022/06/07 04:41:47;;;;;;;;;;;17.70;99.90;;;;;;5116762;28;19914;-76
2022/06/07 04:44:13;;;;;;;;;;;17.80;99.90;;;;;;5116923;28;19999;-76
2022/06/07 04:46:38;;;;;;;;;;;17.90;99.90;;;;;;5116727;28;19934;-76
2022/06/07 04:49:04;;;;;;;;;;;18.00;99.90;;;;;;5116484;28;19990;-76
2022/06/07 04:51:31;;;;;;;;;;;18.10;99.90;;;;;;5116607;28;19919;-76
2022/06/07 04:53:58;;;;;;;;;;;18.10;99.90;;;;;;5116673;28;19927;-76
2022/06/07 04:56:25;;;;;;;;;;;18.30;99.90;;;;;;5116495;28;20723;-76
2022/06/07 04:58:51;;;;;;;;;;;18.40;99.90;;;;;;5116610;28;20324;-76
2022/06/07 05:01:18;;;;;;;;;;;18.50;99.90;;;;;;5116585;28;19994;-76
2022/06/07 05:03:43;;;;;;;;;;;18.50;99.90;;;;;;5116540;28;19969;-76
2022/06/07 05:06:23;;;;;;;;;;;18.50;99.90;;;;;;5116542;28;19963;-76
2022/06/07 05:08:49;;;;;;;;;;;18.70;99.90;;;;;;5116541;28;19908;-76
2022/06/07 05:11:15;;;;;;;;;;;18.90;99.90;;;;;;5116341;28;19919;-76
2022/06/07 05:13:40;;;;;;;;;;;19.10;99.90;;;;;;5116539;28;19908;-76
2022/06/07 05:16:06;;;;;;;;;;;19.40;99.90;;;;;;5097761;28;19916;-76
2022/06/07 05:18:32;;;;;;;;;;;;;;;;;;5115923;28;20367;-76
2022/06/07 05:20:58;;;;;;;;;;;19.80;99.90;;;;;;5116351;28;19916;-76
2022/06/07 05:23:23;;;;;;;;;;;19.90;99.90;;;;;;5097895;28;19911;-76
2022/06/07 05:26:01;;;;;;;;;;;20.00;99.90;;;;;;5115993;28;19908;-77
2022/06/07 05:28:27;;;;;;;;;;;20.20;99.90;;;;;;5115903;28;19955;-76
2022/06/07 05:30:53;;;;;;;;;;;20.30;99.90;;;;;;5116052;28;19912;-77
2022/06/07 05:33:18;;;;;;;;;;;20.40;99.90;;;;;;5097932;28;19917;-77
2022/06/07 05:35:44;;;;;;;;;;;20.50;99.90;;;;;;5116168;28;19916;-77
2022/06/07 05:38:12;;;;;;;;;;;20.50;99.90;;;;;;5116173;28;19912;-77
2022/06/07 05:40:38;;;;;;;;;;;20.70;99.90;;;;;;5116051;28;19904;-80
2022/06/07 05:43:03;;;;;;;;;;;20.90;99.90;;;;;;5102072;28;19915;-80
2022/06/07 05:45:31;;;;;;;;;;;21.00;99.90;;;;;;5117289;28;19904;-77
2022/06/07 05:47:56;;;;;;;;;;;21.20;99.90;;;;;;5115932;28;19916;-78
2022/06/07 05:50:22;;;;;;;;;;;21.40;99.90;;;;;;5116043;28;19918;-78
2022/06/07 05:52:47;;;;;;;;;;;21.40;99.90;;;;;;5115701;28;19970;-78
2022/06/07 05:55:13;;;;;;;;;;;21.50;99.90;;;;;;5115593;28;19915;-77
2022/06/07 05:57:38;;;;;;;;;;;21.70;99.90;;;;;;5115571;28;19939;-78
2022/06/07 06:00:05;;;;;;;;;;;21.90;99.90;;;;;;5115748;28;20390;-78
2022/06/07 06:02:30;;;;;;;;;;;22.10;99.90;;;;;;5115770;28;19915;-78
2022/06/07 06:04:56;;;;;;;;;;;22.30;99.90;;;;;;5097537;28;19908;-77
2022/06/07 06:07:21;;;;;;;;;;;22.50;99.90;;;;;;5115590;28;19907;-78
2022/06/07 06:12:31;;;;;;;;;;;22.60;99.90;;;;;;5115085;28;20047;-78
2022/06/07 06:14:57;;;;;;;;;;;22.80;99.90;;;;;;5115346;28;20298;-78
2022/06/07 06:17:23;;;;;;;;;;;22.90;99.90;;;;;;5115433;28;19916;-77
2022/06/07 06:19:48;;;;;;;;;;;22.80;99.90;;;;;;5115379;28;20277;-78
2022/06/07 06:22:14;;;;;;;;;;;22.90;99.90;;;;;;5115488;28;19907;-77
2022/06/07 06:24:40;;;;;;;;;;;23.00;99.90;;;;;;5115281;28;19966;-78
2022/06/07 06:27:05;;;;;;;;;;;23.10;99.90;;;;;;5096912;28;19939;-78
2022/06/07 06:29:31;;;;;;;;;;;23.20;99.90;;;;;;5115023;28;19958;-78
2022/06/07 06:31:57;;;;;;;;;;;23.30;99.90;;;;;;5115191;28;20350;-78
2022/06/07 06:34:26;;;;;;;;;;;23.30;99.90;;;;;;5096489;28;19941;-78
2022/06/07 06:36:52;;;;;;;;;;;23.60;99.90;;;;;;5114872;28;19938;-78
2022/06/07 06:39:17;;;;;;;;;;;23.40;99.90;;;;;;5096749;28;20398;-78
2022/06/07 06:41:45;;;;;;;;;;;23.70;99.90;;;;;;5114871;28;20011;-78
2022/06/07 06:44:11;;;;;;;;;;;23.70;99.90;;;;;;5115055;28;19955;-78
2022/06/07 06:46:40;;;;;;;;;;;23.90;99.60;;;;;;5096797;28;19962;-77
2022/06/07 06:49:07;;;;;;;;;;;24.10;97.90;;;;;;5114580;28;19908;-78
2022/06/07 06:51:32;;;;;;;;;;;24.30;98.10;;;;;;5114744;28;19910;-78
2022/06/07 06:53:59;;;;;;;;;;;24.50;96.70;;;;;;5114682;28;19999;-78
2022/06/07 06:56:25;;;;;;;;;;;24.40;97.30;;;;;;5114531;28;19920;-78
2022/06/07 06:58:52;;;;;;;;;;;24.50;96.90;;;;;;5114044;28;19916;-78
2022/06/07 07:01:19;;;;;;;;;;;24.60;94.80;;;;;;5095998;28;19907;-78
2022/06/07 07:03:45;;;;;;;;;;;24.70;94.30;;;;;;5114562;28;20373;-78
2022/06/07 07:06:12;;;;;;;;;;;24.80;93.70;;;;;;5096166;28;19912;-78
2022/06/07 07:08:38;;;;;;;;;;;24.90;92.50;;;;;;5114300;28;19908;-78
2022/06/07 07:11:13;;;;;;;;;;;25.00;91.90;;;;;;5095974;28;19908;-78
2022/06/07 07:13:39;;;;;;;;;;;25.10;91.70;;;;;;5114282;28;19914;-78
2022/06/07 07:16:08;;;;;;;;;;;25.30;91.00;;;;;;5114247;28;20010;-78
2022/06/07 07:18:35;;;;;;;;;;;25.50;90.70;;;;;;5114017;28;20282;-78
2022/06/07 07:21:05;;;;;;;;;;;25.50;89.60;;;;;;5095909;28;19947;-78
2022/06/07 07:23:30;;;;;;;;;;;25.70;90.40;;;;;;5114119;28;20416;-78
2022/06/07 07:26:22;;;;;;;;;;;25.90;90.10;;;;;;5114136;28;19912;-78
2022/06/07 07:28:49;;;;;;;;;;;26.00;89.00;;;;;;5110947;28;20027;-78
2022/06/07 07:31:17;;;;;;;;;;;26.20;90.30;;;;;;5114023;28;19908;-78
2022/06/07 07:33:42;;;;;;;;;;;26.30;88.80;;;;;;5114077;28;19915;-78
2022/06/07 07:36:08;;;;;;;;;;;26.40;87.20;;;;;;5113947;28;19916;-78
2022/06/07 07:38:35;;;;;;;;;;;26.40;87.50;;;;;;5113803;28;19908;-78
2022/06/07 07:41:01;;;;;;;;;;;26.70;88.00;;;;;;5113901;28;19912;-78
2022/06/07 07:43:26;;;;;;;;;;;27.00;84.60;;;;;;5095466;28;19911;-78
2022/06/07 07:45:55;;;;;;;;;;;27.00;85.00;;;;;;5113685;28;19964;-78
2022/06/07 07:48:22;;;;;;;;;;;27.00;82.90;;;;;;5095436;28;19915;-78
2022/06/07 07:50:48;;;;;;;;;;;27.10;84.20;;;;;;5113201;28;19912;-79
2022/06/07 07:53:14;;;;;;;;;;;27.10;86.00;;;;;;5113200;28;19924;-78
2022/06/07 07:55:44;;;;;;;;;;;27.00;84.10;;;;;;5113158;28;19915;-77
2022/06/07 07:58:11;;;;;;;;;;;26.90;85.00;;;;;;5113528;28;19947;-77
2022/06/07 08:00:36;;;;;;;;;;;26.90;84.40;;;;;;5095149;28;19935;-78
2022/06/07 08:03:02;;;;;;;;;;;26.90;84.90;;;;;;5113373;28;20279;-77
2022/06/07 08:05:29;;;;;;;;;;;27.00;86.10;;;;;;5113322;28;19912;-84
2022/06/07 08:07:55;;;;;;;;;;;27.20;84.50;;;;;;5095100;28;20366;-78
2022/06/07 08:10:21;;;;;;;;;;;27.40;79.80;;;;;;5112702;28;19908;-83
2022/06/07 08:12:46;;;;;;;;;;;27.50;78.20;;;;;;5095126;28;19931;-77
2022/06/07 08:15:12;;;;;;;;;;;27.50;74.70;;;;;;5113223;28;19934;-77
2022/06/07 08:17:38;;;;;;;;;;;27.40;71.10;;;;;;5113232;28;20373;-77
2022/06/07 08:20:03;;;;;;;;;;;27.30;72.20;;;;;;5113125;28;19908;-77
2022/06/07 08:22:29;;;;;;;;;;;27.20;69.10;;;;;;5112774;28;19919;-77
2022/06/07 08:24:54;;;;;;;;;;;27.30;70.70;;;;;;5113069;28;19912;-78
2022/06/07 08:27:20;;;;;;;;;;;27.40;68.20;;;;;;5112618;28;19915;-78
2022/06/07 08:29:46;;;;;;;;;;;27.60;66.90;;;;;;5112776;28;19911;-79
2022/06/07 08:32:11;;;;;;;;;;;27.90;68.90;;;;;;5112870;28;19911;-77
2022/06/07 08:37:33;;;;;;;;;;;28.30;67.00;;;;;;5112705;28;19926;-78
2022/06/07 08:40:03;;;;;;;;;;;28.30;62.90;;;;;;5094577;28;19908;-77
2022/06/07 08:42:30;;;;;;;;;;;28.40;65.50;;;;;;5112693;28;19915;-77
2022/06/07 08:44:58;;;;;;;;;;;28.30;65.40;;;;;;5112866;28;19911;-78
2022/06/07 08:47:27;;;;;;;;;;;28.10;67.80;;;;;;5112613;28;20347;-81
2022/06/07 08:49:53;;;;;;;;;;;28.20;68.00;;;;;;5112914;28;20377;-77
2022/06/07 08:52:22;;;;;;;;;;;28.20;66.50;;;;;;5112861;28;20028;-78
2022/06/07 08:54:48;;;;;;;;;;;28.20;68.80;;;;;;5112731;28;20032;-78
2022/06/07 08:57:18;;;;;;;;;;;28.10;68.00;;;;;;5112775;28;19995;-78
2022/06/07 08:59:46;;;;;;;;;;;28.30;67.70;;;;;;5112939;28;19915;-77
2022/06/07 09:02:12;;;;;;;;;;;28.30;66.10;;;;;;5112815;28;19912;-81
2022/06/07 09:04:39;;;;;;;;;;;28.40;65.50;;;;;;5112925;28;19908;-78
2022/06/07 09:07:25;;;;;;;;;;;28.50;62.60;;;;;;5094389;28;19908;-77
2022/06/07 09:12:40;;;;;;;;;;;28.60;62.30;;;;;;5112988;28;19919;-77
2022/06/07 09:15:13;;;;;;;;;;;28.60;60.50;;;;;;5112840;28;19916;-77
2022/06/07 09:17:41;;;;;;;;;;;28.50;62.70;;;;;;5112686;28;19918;-77
2022/06/07 09:20:14;;;;;;;;;;;28.60;63.20;;;;;;5112692;28;20396;-78
2022/06/07 09:22:51;;;;;;;;;;;28.50;64.20;;;;;;5116666;28;20361;-77
2022/06/07 09:25:34;;;;;;;;;;;28.60;64.30;;;;;;5116500;28;19908;-77
2022/06/07 09:28:00;;;;;;;;;;;28.60;62.50;;;;;;5116359;28;19907;-77
2022/06/07 09:30:38;;;;;;;;;;;28.80;63.50;;;;;;5116136;28;19915;-77
2022/06/07 09:33:10;;;;;;;;;;;29.00;65.40;;;;;;5098093;28;19914;-77
2022/06/07 09:35:42;;;;;;;;;;;29.30;64.60;;;;;;5115737;28;19969;-77
2022/06/07 09:38:21;;;;;;;;;;;29.40;63.40;;;;;;5115922;28;19947;-76
2022/06/07 09:40:54;;;;;;;;;;;29.60;64.00;;;;;;5115900;28;19904;-78
2022/06/07 09:43:24;;;;;;;;;;;29.50;65.80;;;;;;5116056;28;20010;-77
2022/06/07 09:45:55;;;;;;;;;;;29.50;65.40;;;;;;5115962;28;19904;-78
2022/06/07 09:48:29;;;;;;;;;;;29.60;65.90;;;;;;5115910;28;19907;-78
2022/06/07 09:50:59;;;;;;;;;;;29.30;66.30;;;;;;5115919;28;20007;-77
2022/06/07 09:53:25;;;;;;;;;;;29.10;67.60;;;;;;5115474;28;19931;-78
2022/06/07 09:56:05;;;;;;;;;;;29.00;69.90;;;;;;5115843;28;19916;-77
2022/06/07 09:58:42;;;;;;;;;;;28.90;65.80;;;;;;5114987;28;19908;-77
2022/06/07 10:01:13;;;;;;;;;;;28.70;66.70;;;;;;5115690;28;19931;-76
2022/06/07 10:03:41;;;;;;;;;;;28.50;65.70;;;;;;5115047;28;19991;-76
2022/06/07 10:06:10;;;;;;;;;;;28.40;65.80;;;;;;5115344;28;19908;-75
2022/06/07 10:09:05;;;;;;;;;;;28.40;67.70;;;;;;5097133;28;20351;-75
2022/06/07 10:11:43;;;;;;;;;;;28.40;67.50;;;;;;5097224;28;20011;-75
2022/06/07 10:14:24;;;;;;;;;;;28.20;67.20;;;;;;5115262;28;19904;-75
2022/06/07 10:16:52;;;;;;;;;;;28.10;68.80;;;;;;5115326;28;19916;-78
2022/06/07 10:19:36;;;;;;;;;;;28.10;68.50;;;;;;5096577;28;19908;-78
2022/06/07 10:22:20;;;;;;;;;;;28.00;67.30;;;;;;5115103;28;19908;-77
2022/06/07 10:24:55;;;;;;;;;;;28.20;69.00;;;;;;5114882;28;19912;-78
2022/06/07 10:27:35;;;;;;;;;;;28.30;66.70;;;;;;5096608;28;19908;-78
2022/06/07 10:30:12;;;;;;;;;;;28.30;65.00;;;;;;5114884;28;19908;-78
2022/06/07 10:32:37;;;;;;;;;;;28.40;66.60;;;;;;5095551;28;19914;-78
2022/06/07 10:35:15;;;;;;;;;;;28.40;65.30;;;;;;5114515;28;20262;-78
2022/06/07 10:38:11;;;;;;;;;;;28.60;68.30;;;;;;5096299;28;19911;-78
2022/06/07 10:40:55;;;;;;;;;;;28.90;67.00;;;;;;5096657;28;19908;-78
2022/06/07 10:43:26;;;;;;;;;;;29.00;65.80;;;;;;5114759;28;19961;-78
2022/06/07 10:45:54;;;;;;;;;;;29.30;66.20;;;;;;5114481;28;19935;-79
2022/06/07 10:48:35;;;;;;;;;;;29.30;64.20;;;;;;5114736;28;19908;-78
2022/06/07 10:51:06;;;;;;;;;;;29.40;65.70;;;;;;5114907;28;20416;-78
2022/06/07 10:53:40;;;;;;;;;;;29.40;68.60;;;;;;5096139;28;19923;-77
2022/06/07 10:56:14;;;;;;;;;;;29.20;68.80;;;;;;5096138;28;19916;-78
2022/06/07 10:58:40;;;;;;;;;;;29.20;70.50;;;;;;5114423;28;19914;-77
2022/06/07 11:01:15;;;;;;;;;;;29.20;68.80;;;;;;5114406;28;19903;-78
2022/06/07 11:03:56;;;;;;;;;;;29.10;67.50;;;;;;5114190;28;19914;-78
2022/06/07 11:09:22;;;;;;;;;;;28.80;69.40;;;;;;5114221;28;19915;-75
2022/06/07 11:11:50;;;;;;;;;;;28.60;69.40;;;;;;5114188;28;19929;-75
2022/06/07 11:14:27;;;;;;;;;;;28.30;70.20;;;;;;5113931;28;19904;-77
2022/06/07 11:17:12;;;;;;;;;;;28.20;70.30;;;;;;5095611;28;20397;-76
2022/06/07 11:19:37;;;;;;;;;;;28.10;69.60;;;;;;5113889;28;20414;-76
2022/06/07 11:22:04;;;;;;;;;;;28.00;71.10;;;;;;5113966;28;19911;-75
2022/06/07 11:24:31;;;;;;;;;;;27.90;71.00;;;;;;5113914;28;19912;-75
2022/06/07 11:27:03;;;;;;;;;;;28.00;70.70;;;;;;5113740;28;19945;-75
2022/06/07 11:29:29;;;;;;;;;;;28.20;71.10;;;;;;5113723;28;19911;-75
2022/06/07 11:31:56;;;;;;;;;;;28.40;70.20;;;;;;5095447;28;19919;-75
2022/06/07 11:34:23;;;;;;;;;;;28.40;68.50;;;;;;5113819;28;19930;-75
2022/06/07 11:36:49;;;;;;;;;;;28.40;68.80;;;;;;5113746;28;20404;-75
2022/06/07 11:39:22;;;;;;;;;;;28.10;67.70;;;;;;5113900;28;19967;-75
2022/06/07 11:41:51;;;;;;;;;;;28.00;69.40;;;;;;5095550;28;19914;-76
2022/06/07 11:44:16;;;;;;;;;;;28.00;69.10;;;;;;5113032;28;20406;-75
2022/06/07 11:46:51;;;;;;;;;;;27.90;67.40;;;;;;5112488;28;19990;-75
2022/06/07 11:51:57;;;;;;;;;;;27.90;66.70;;;;;;5113307;28;19912;-75
2022/06/07 11:54:22;;;;;;;;;;;27.80;69.40;;;;;;5113615;28;19908;-75
2022/06/07 11:56:51;;;;;;;;;;;27.80;70.80;;;;;;5113304;28;19922;-75
2022/06/07 11:59:16;;;;;;;;;;;27.60;69.30;;;;;;5113521;28;19915;-75
2022/06/07 12:01:45;;;;;;;;;;;27.70;69.60;;;;;;5113650;28;19904;-77
2022/06/07 12:04:29;;;;;;;;;;;27.80;69.70;;;;;;5113539;28;20418;-80
2022/06/07 12:07:04;;;;;;;;;;;28.10;69.70;;;;;;5095120;28;19915;-77
2022/06/07 12:09:30;;;;;;;;;;;28.10;67.50;;;;;;5113379;28;19961;-77
2022/06/07 12:11:56;;;;;;;;;;;28.10;68.10;;;;;;5113336;28;19947;-78
2022/06/07 12:14:38;;;;;;;;;;;28.10;67.80;;;;;;5113140;28;19911;-77
2022/06/07 12:17:18;;;;;;;;;;;28.20;66.80;;;;;;5113194;28;19920;-77
2022/06/07 12:19:45;;;;;;;;;;;28.10;67.20;;;;;;5113268;28;19908;-77
2022/06/07 12:22:16;;;;;;;;;;;27.90;66.80;;;;;;5113271;28;20326;-77
2022/06/07 12:24:43;;;;;;;;;;;28.00;67.10;;;;;;5113191;28;19907;-77
2022/06/07 12:27:22;;;;;;;;;;;28.10;69.10;;;;;;5094774;28;19915;-77
2022/06/07 12:29:48;;;;;;;;;;;28.10;69.60;;;;;;5113098;28;20317;-77
2022/06/07 12:32:19;;;;;;;;;;;28.20;70.20;;;;;;5113077;28;19912;-77
2022/06/07 12:34:44;;;;;;;;;;;28.20;70.50;;;;;;5112994;28;20269;-77
2022/06/07 12:37:10;;;;;;;;;;;28.20;68.50;;;;;;5112809;28;20046;-77
2022/06/07 12:39:50;;;;;;;;;;;28.30;68.90;;;;;;5113089;28;19908;-77
2022/06/07 12:42:18;;;;;;;;;;;28.30;69.80;;;;;;5094640;28;19912;-78
2022/06/07 12:44:54;;;;;;;;;;;28.40;70.80;;;;;;5112918;28;19911;-78
2022/06/07 12:47:24;;;;;;;;;;;28.30;67.20;;;;;;5112993;28;19908;-78
2022/06/07 12:49:50;;;;;;;;;;;28.30;67.60;;;;;;5113010;28;19908;-77
2022/06/07 12:52:21;;;;;;;;;;;28.20;68.10;;;;;;5112737;28;20367;-77
2022/06/07 12:54:49;;;;;;;;;;;28.30;67.90;;;;;;5094738;28;19908;-77
2022/06/07 12:57:16;;;;;;;;;;;28.40;67.80;;;;;;5097925;28;19916;-77
2022/06/07 12:59:50;;;;;;;;;;;28.30;67.00;;;;;;5116959;28;20377;-77
2022/06/07 13:02:26;;;;;;;;;;;28.10;66.80;;;;;;5116813;28;19960;-77
2022/06/07 13:04:56;;;;;;;;;;;28.00;68.60;;;;;;5116801;28;19908;-77
2022/06/07 13:07:24;;;;;;;;;;;28.00;70.80;;;;;;5098133;28;19959;-77
2022/06/07 13:09:53;;;;;;;;;;;27.90;69.90;;;;;;5116418;28;20346;-77
2022/06/07 13:12:27;;;;;;;;;;;27.80;69.90;;;;;;5116453;28;19908;-77
2022/06/07 13:14:52;;;;;;;;;;;27.70;69.20;;;;;;5116322;28;19915;-78
2022/06/07 13:17:27;;;;;;;;;;;27.50;69.00;;;;;;5115891;28;19911;-75
2022/06/07 13:19:53;;;;;;;;;;;27.50;70.50;;;;;;5116363;28;19960;-80
2022/06/07 13:22:21;;;;;;;;;;;27.50;71.10;;;;;;5116086;28;19912;-79
2022/06/07 13:24:48;;;;;;;;;;;27.60;71.40;;;;;;5116435;28;19907;-78
2022/06/07 13:27:37;;;;;;;;;;;27.60;71.10;;;;;;5116330;28;20354;-77
2022/06/07 13:30:10;;;;;;;;;;;27.70;70.90;;;;;;5116358;28;20215;-79
2022/06/07 13:32:36;;;;;;;;;;;27.80;70.30;;;;;;5116336;28;19919;-78
2022/06/07 13:35:06;;;;;;;;;;;27.90;70.20;;;;;;5116180;28;19908;-78
2022/06/07 13:37:32;;;;;;;;;;;27.90;69.70;;;;;;5116004;28;20004;-79
2022/06/07 13:40:22;;;;;;;;;;;27.90;68.30;;;;;;5116198;28;19915;-77
2022/06/07 13:42:58;;;;;;;;;;;27.80;68.70;;;;;;5115989;28;19907;-77
2022/06/07 13:45:27;;;;;;;;;;;27.70;69.20;;;;;;5116093;28;19914;-77
2022/06/07 13:47:59;;;;;;;;;;;27.70;69.10;;;;;;5115866;28;20021;-77
2022/06/07 13:53:21;;;;;;;;;;;27.80;71.20;;;;;;5115836;28;19927;-77
2022/06/07 13:55:50;;;;;;;;;;;27.80;71.10;;;;;;5115789;28;19919;-78
2022/06/07 13:58:16;;;;;;;;;;;27.80;72.00;;;;;;5097476;28;20270;-78
2022/06/07 14:00:42;;;;;;;;;;;27.90;71.60;;;;;;5115690;28;19915;-78
2022/06/07 14:03:25;;;;;;;;;;;28.00;71.10;;;;;;5115624;28;19915;-77
2022/06/07 14:05:51;;;;;;;;;;;28.10;71.30;;;;;;5097419;28;19907;-79
2022/06/07 14:08:17;;;;;;;;;;;27.90;70.80;;;;;;5114157;28;19907;-77
2022/06/07 14:10:43;;;;;;;;;;;27.90;70.50;;;;;;5097128;28;19912;-79
2022/06/07 14:13:09;;;;;;;;;;;27.90;68.50;;;;;;5096953;28;19939;-78
2022/06/07 14:15:35;;;;;;;;;;;27.80;68.60;;;;;;5114819;28;19962;-77
2022/06/07 14:18:02;;;;;;;;;;;27.80;69.40;;;;;;5115180;28;19908;-79
2022/06/07 14:20:30;;;;;;;;;;;27.90;69.60;;;;;;5114721;28;19918;-78
2022/06/07 14:22:56;;;;;;;;;;;28.00;69.50;;;;;;5115578;28;20359;-79
2022/06/07 14:25:23;;;;;;;;;;;28.20;70.30;;;;;;5115081;28;19915;-78
2022/06/07 14:27:49;;;;;;;;;;;28.40;69.30;;;;;;5114987;28;19934;-78
2022/06/07 14:30:15;;;;;;;;;;;28.60;68.20;;;;;;5096674;28;20347;-79
2022/06/07 14:32:45;;;;;;;;;;;28.70;67.00;;;;;;5096880;28;19908;-78
2022/06/07 14:35:18;;;;;;;;;;;28.70;68.40;;;;;;5098115;28;19960;-77
2022/06/07 14:37:44;;;;;;;;;;;28.50;67.30;;;;;;5096559;28;20014;-78
2022/06/07 14:40:16;;;;;;;;;;;28.30;68.30;;;;;;5114860;28;19980;-79
2022/06/07 14:42:43;;;;;;;;;;;28.10;67.50;;;;;;5097194;28;19908;-85
2022/06/07 14:45:12;;;;;;;;;;;27.80;69.80;;;;;;5097779;28;19908;-84
2022/06/07 14:47:37;;;;;;;;;;;27.40;71.20;;;;;;5096735;28;19908;-83
2022/06/07 14:50:03;;;;;;;;;;;25.80;78.50;;;;;;5096615;28;19907;-78
2022/06/07 14:52:29;;;;;;;;;;;25.70;79.00;;;;;;5114440;28;19919;-82
2022/06/07 14:54:55;;;;;;;;;;;25.20;82.60;;;;;;5096341;28;19919;-79